Time;durP1;ratioP1;P1;durP2;ratioP2;P2;SDS_P1;SDS_P2;PMS_P1;PMS_P2;Temp;Humidity;BMP_temperature;BMP_pressure;BME280_temperature;BME280_humidity;BME280_pressure;Samples;Min_cycle;Max_cycle;Signal;HPM_P1;HPM_P2
2022/12/15 00:40:40;;;;;;;24.93;13.60;;;;;;;4.45;55.17;100664.66;5074423;28;20407;-73
2022/12/15 00:43:10;;;;;;;22.97;13.47;;;;;;;4.15;55.78;100661.28;5073950;28;20040;-73
2022/12/15 00:48:20;;;;;;;25.07;13.43;;;;;;;4.54;55.14;100658.19;5074108;28;20048;-74
2022/12/15 00:50:51;;;;;;;27.23;13.80;;;;;;;4.51;54.33;100655.09;5054560;28;20033;-73
2022/12/15 01:21:17;;;;;;;18.67;11.63;;;;;;;4.44;55.17;100674.47;5053333;28;20036;-73
2022/12/15 01:23:42;;;;;;;22.63;11.60;;;;;;;4.32;54.77;100675.16;5053560;28;20033;-74
2022/12/15 01:26:08;;;;;;;25.57;13.13;;;;;;;4.36;55.64;100685.22;5035533;28;20033;-74
2022/12/15 01:28:33;;;;;;;24.33;12.43;;;;;;;4.43;54.08;100683.47;5053505;28;20381;-74
2022/12/15 01:30:59;;;;;;;21.27;12.10;;;;;;;4.34;53.84;100689.91;5053644;28;20056;-74
2022/12/15 01:33:24;;;;;;;24.43;12.13;;;;;;;4.31;54.68;100692.94;5071907;28;20060;-74
2022/12/15 01:36:02;;;;;;;18.10;11.27;;;;;;;4.19;55.33;100693.63;5073341;28;20033;-75
2022/12/15 01:38:28;;;;;;;25.50;12.00;;;;;;;4.40;54.55;100699.00;5073607;28;20044;-74
2022/12/15 01:40:57;;;;;;;22.97;12.13;;;;;;;4.21;55.60;100704.91;5073095;28;20100;-74
2022/12/15 01:43:26;;;;;;;21.80;12.10;;;;;;;4.21;55.64;100699.56;5073412;28;20101;-74
2022/12/15 01:45:59;;;;;;;18.83;11.13;;;;;;;3.60;58.00;100708.03;5073709;28;20042;-74
2022/12/15 01:48:40;;;;;;;25.80;13.37;;;;;;;4.15;57.18;100705.63;5071889;28;20056;-75
2022/12/15 01:51:12;;;;;;;19.58;12.45;;;;;;;3.61;59.23;100710.47;5064860;28;20381;-75
2022/12/15 01:54:02;;;;;;;21.73;13.67;;;;;;;3.78;58.38;100703.13;5054852;28;20113;-73
2022/12/15 01:56:30;;;;;;;23.67;12.30;;;;;;;4.11;57.81;100713.16;4991112;28;20045;-74
2022/12/15 01:59:00;;;;;;;27.10;12.17;;;;;;;4.15;56.84;100713.63;4991576;28;20065;-74
2022/12/15 02:01:27;;;;;;;27.10;13.00;;;;;;;4.71;55.68;100704.00;4991690;28;20050;-73
2022/12/15 02:03:52;;;;;;;31.17;12.87;;;;;;;4.51;54.00;100717.09;4991802;28;20030;-74
2022/12/15 02:06:20;;;;;;;22.37;11.90;;;;;;;4.33;54.16;100703.41;4991044;28;20033;-74
2022/12/15 02:08:59;;;;;;;19.63;11.40;;;;;;;4.37;54.31;100707.31;4990957;28;20411;-74
2022/12/15 02:11:34;;;;;;;21.37;12.27;;;;;;;4.21;54.15;100708.38;4990809;28;20050;-74
2022/12/15 02:14:04;;;;;;;21.40;11.07;;;;;;;3.81;54.79;100714.25;4991048;28;20030;-75
2022/12/15 02:16:48;;;;;;;23.67;10.73;;;;;;;3.43;55.71;100712.66;4991194;28;20045;-74
2022/12/15 02:19:25;;;;;;;23.10;11.67;;;;;;;3.30;55.87;100712.47;4978991;28;20545;-74
2022/12/15 02:21:59;;;;;;;23.53;11.70;;;;;;;3.06;56.72;100724.16;4994512;28;20050;-74
2022/12/15 02:24:51;;;;;;;20.23;11.63;;;;;;;3.19;56.00;100720.88;4994332;28;20053;-74
2022/12/15 02:27:48;;;;;;;19.90;11.10;;;;;;;3.16;56.50;100713.28;4978127;28;20034;-74
2022/12/15 02:30:39;;;;;;;23.10;11.63;;;;;;;3.40;55.87;100721.81;4917818;29;20059;-74
2022/12/15 02:33:23;;;;;;;21.00;11.87;;;;;;;3.60;54.95;100721.31;4930975;28;20634;-74
2022/12/15 02:35:51;;;;;;;21.63;11.57;;;;;;;3.00;56.06;100726.69;4975158;28;20071;-74
2022/12/15 02:38:27;;;;;;;18.87;11.77;;;;;;;2.97;56.57;100725.22;4974863;28;20050;-73
2022/12/15 02:41:04;;;;;;;26.93;11.37;;;;;;;2.79;57.17;100724.69;4974627;28;20071;-74
2022/12/15 02:43:34;;;;;;;21.77;11.70;;;;;;;2.74;56.67;100732.38;4974724;28;20038;-75
2022/12/15 02:46:47;;;;;;;21.80;11.83;;;;;;;2.83;56.33;100735.81;4975522;28;20042;-74
2022/12/15 02:49:50;;;;;;;18.27;10.67;;;;;;;2.87;57.37;100732.59;4898701;29;20083;-74
2022/12/15 02:52:35;;;;;;;18.60;10.77;;;;;;;2.84;56.41;100726.81;4912334;29;20048;-75
2022/12/15 02:55:02;;;;;;;19.73;10.83;;;;;;;2.91;55.99;100727.78;4917363;29;20425;-73
2022/12/15 02:57:41;;;;;;;19.27;11.43;;;;;;;2.80;56.35;100722.88;4916513;29;20112;-74
2022/12/15 03:00:09;;;;;;;21.27;12.70;;;;;;;2.69;56.54;100727.59;4915994;29;20491;-75
2022/12/15 03:02:39;;;;;;;22.00;12.20;;;;;;;2.66;56.24;100733.25;4916954;29;20047;-74
2022/12/15 03:05:05;;;;;;;23.20;13.70;;;;;;;2.52;56.19;100728.72;4917492;29;20102;-73
2022/12/15 03:07:30;;;;;;;21.23;10.60;;;;;;;2.59;56.58;100732.31;4967756;28;20617;-74
2022/12/15 03:10:01;;;;;;;23.20;11.57;;;;;;;2.34;56.50;100730.81;4994402;28;20077;-74
2022/12/15 03:12:27;;;;;;;;;;;;;;;2.45;56.60;100726.94;4994953;28;20042;-74
2022/12/15 03:14:52;;;;;;;27.50;10.37;;;;;;;2.48;56.67;100734.53;4993777;28;19964;-74
2022/12/15 03:17:18;;;;;;;21.33;10.53;;;;;;;2.55;57.16;100746.09;4993952;28;20047;-74
2022/12/15 03:19:44;;;;;;;21.17;11.97;;;;;;;2.58;56.54;100740.44;4993594;28;20055;-76
2022/12/15 03:22:09;;;;;;;25.77;12.53;;;;;;;2.44;57.68;100746.50;4977369;28;20494;-74
2022/12/15 03:24:58;;;;;;;22.63;11.70;;;;;;;2.44;56.25;100742.03;5001424;28;20390;-74
2022/12/15 03:27:24;;;;;;;18.37;10.80;;;;;;;2.29;56.66;100740.28;5047885;28;20052;-75
2022/12/15 03:29:49;;;;;;;23.10;13.03;;;;;;;2.34;56.29;100738.75;5054798;28;20037;-75
2022/12/15 03:32:14;;;;;;;21.93;11.33;;;;;;;2.37;56.75;100746.38;5024344;28;20103;-74
2022/12/15 03:34:40;;;;;;;28.20;12.27;;;;;;;2.37;56.38;100745.56;5035925;28;20108;-75
2022/12/15 03:37:06;;;;;;;27.03;11.47;;;;;;;2.54;57.64;100742.63;5034761;28;20061;-75
2022/12/15 03:39:31;;;;;;;24.77;11.93;;;;;;;2.54;57.64;100747.94;5035921;28;20089;-75
2022/12/15 03:41:57;;;;;;;21.23;11.43;;;;;;;2.73;56.58;100740.50;5035029;28;20041;-75
2022/12/15 03:44:22;;;;;;;26.23;10.97;;;;;;;2.70;58.90;100744.34;5051549;28;20477;-74
2022/12/15 03:46:47;;;;;;;22.97;11.73;;;;;;;2.85;57.02;100739.91;5052645;28;20033;-76
2022/12/15 03:49:13;;;;;;;19.00;10.57;;;;;;;2.81;56.61;100743.13;5035465;28;20079;-75
2022/12/15 03:51:38;;;;;;;18.67;12.20;;;;;;;2.79;56.43;100748.56;5034604;28;20044;-73
2022/12/15 03:54:03;;;;;;;19.40;10.63;;;;;;;2.84;57.58;100754.19;5034767;28;20110;-75
2022/12/15 03:56:29;;;;;;;17.93;11.00;;;;;;;2.84;55.70;100756.00;5033651;28;20054;-74
2022/12/15 03:58:54;;;;;;;25.53;11.63;;;;;;;3.30;55.25;100749.66;5034116;28;20057;-75
2022/12/15 04:01:19;;;;;;;20.83;10.90;;;;;;;3.30;54.64;100750.47;5034076;28;20037;-71
2022/12/15 04:03:45;;;;;;;21.60;10.77;;;;;;;3.15;55.04;100756.75;5034283;28;20200;-75
2022/12/15 04:06:10;;;;;;;17.83;11.13;;;;;;;3.19;54.58;100753.56;5034073;28;20160;-75
2022/12/15 04:08:36;;;;;;;24.17;12.43;;;;;;;3.14;55.05;100752.47;5033997;28;20045;-75
2022/12/15 04:11:01;;;;;;;18.63;10.57;;;;;;;3.09;54.23;100745.03;5033734;28;20033;-75
2022/12/15 04:13:26;;;;;;;18.53;9.73;;;;;;;2.96;55.63;100746.63;5034198;28;20087;-73
2022/12/15 04:15:52;;;;;;;22.17;10.43;;;;;;;3.06;54.82;100748.03;5034029;28;20116;-74
2022/12/15 04:18:17;;;;;;;18.20;10.50;;;;;;;2.99;55.23;100746.28;5053810;28;20587;-74
2022/12/15 04:20:42;;;;;;;21.63;10.90;;;;;;;3.07;54.77;100743.53;5052385;28;20047;-73
2022/12/15 04:23:08;;;;;;;21.70;10.43;;;;;;;2.53;55.70;100748.13;5052644;28;20032;-74
2022/12/15 05:31:53;;;;;;;20.07;11.03;;;;;;;1.91;56.27;100773.75;5072446;28;20190;-75
2022/12/15 05:34:23;;;;;;;19.80;10.80;;;;;;;1.93;56.48;100779.72;5073803;28;20472;-75
2022/12/15 05:36:49;;;;;;;22.37;11.03;;;;;;;2.00;56.90;100775.41;5042294;28;20088;-74
2022/12/15 05:39:15;;;;;;;19.20;12.40;;;;;;;1.84;56.73;100778.09;5052617;28;20136;-75
2022/12/15 05:41:40;;;;;;;25.00;12.87;;;;;;;1.93;55.85;100786.84;5051969;28;20417;-76
2022/12/15 05:44:06;;;;;;;18.03;11.57;;;;;;;1.85;56.38;100787.69;5051687;28;20041;-75
2022/12/15 05:46:32;;;;;;;17.57;10.97;;;;;;;1.85;56.08;100790.31;5052173;28;20048;-75
2022/12/15 05:48:57;;;;;;;20.27;10.47;;;;;;;1.91;55.81;100784.34;5052640;28;20059;-76
2022/12/15 05:51:23;;;;;;;23.37;12.27;;;;;;;1.89;56.03;100789.00;5052460;28;20053;-76
2022/12/15 05:53:48;;;;;;;23.83;11.47;;;;;;;2.00;55.81;100790.47;5054049;28;20032;-77
2022/12/15 05:56:14;;;;;;;20.63;11.07;;;;;;;2.00;56.08;100791.28;5055324;28;20072;-76
2022/12/15 05:58:40;;;;;;;17.80;10.67;;;;;;;2.12;55.61;100792.56;5055471;28;20044;-75
2022/12/15 06:01:12;;;;;;;19.73;10.63;;;;;;;2.03;55.83;100795.41;5052810;28;20029;-75
2022/12/15 06:03:39;;;;;;;21.87;11.17;;;;;;;2.06;55.69;100793.25;5053224;28;20082;-75
2022/12/15 06:06:06;;;;;;;24.60;11.37;;;;;;;1.97;55.70;100806.69;5056174;28;20040;-75
2022/12/15 06:08:35;;;;;;;16.63;10.03;;;;;;;2.06;55.43;100806.50;5052424;28;20072;-75
2022/12/15 06:11:01;;;;;;;14.97;10.53;;;;;;;2.01;55.21;100802.69;5036777;28;20045;-76
2022/12/15 06:13:30;;;;;;;17.73;10.87;;;;;;;1.92;55.44;100811.69;5036343;28;20038;-75
2022/12/15 06:16:00;;;;;;;17.27;10.57;;;;;;;1.85;55.70;100811.53;5052235;28;20033;-77
2022/12/15 06:18:29;;;;;;;20.03;10.60;;;;;;;1.89;55.12;100814.69;5055860;28;20048;-76
2022/12/15 06:20:59;;;;;;;25.47;11.13;;;;;;;1.83;55.45;100818.00;5052597;28;20124;-77
2022/12/15 06:23:26;;;;;;;22.95;11.02;;;;;;;1.85;55.49;100811.53;5034921;28;20045;-75
2022/12/15 06:25:52;;;;;;;21.00;10.57;;;;;;;1.94;54.68;100812.34;5046794;28;20029;-76
2022/12/15 06:28:22;;;;;;;25.57;10.60;;;;;;;1.79;55.10;100814.84;5055411;28;20455;-76
2022/12/15 06:30:59;;;;;;;17.93;9.73;;;;;;;1.84;55.30;100811.69;5057411;28;20052;-76
2022/12/15 06:33:25;;;;;;;19.37;9.90;;;;;;;1.86;55.75;100807.88;5075472;28;20061;-76
2022/12/15 06:35:50;;;;;;;19.07;11.27;;;;;;;1.85;55.11;100816.81;5075965;28;20048;-77
2022/12/15 06:38:15;;;;;;;14.43;9.47;;;;;;;1.82;55.06;100811.88;5076008;28;20036;-76
2022/12/15 06:40:41;;;;;;;23.63;10.50;;;;;;;1.90;55.21;100816.31;5073749;28;20074;-76
2022/12/15 06:43:07;;;;;;;18.10;10.87;;;;;;;1.83;55.38;100812.72;5075846;28;20088;-77
2022/12/15 06:45:33;;;;;;;23.53;10.77;;;;;;;1.84;55.02;100812.53;5075351;28;20028;-77
2022/12/15 06:47:58;;;;;;;16.53;10.03;;;;;;;1.90;55.39;100824.28;5074673;28;20067;-76
2022/12/15 06:50:24;;;;;;;25.80;11.07;;;;;;;1.90;54.88;100821.63;5075456;28;20501;-77
2022/12/15 06:52:49;;;;;;;20.53;11.57;;;;;;;1.76;55.49;100821.31;5074789;28;20029;-76
2022/12/15 06:55:15;;;;;;;19.47;11.77;;;;;;;1.78;55.16;100818.50;5073727;28;20063;-77
2022/12/15 06:57:40;;;;;;;19.00;10.20;;;;;;;1.78;55.28;100821.97;5072043;28;20492;-76
2022/12/15 07:00:06;;;;;;;19.97;10.63;;;;;;;1.68;55.28;100825.81;5074612;28;20033;-76
2022/12/15 07:02:31;;;;;;;18.90;10.40;;;;;;;1.85;54.87;100829.25;5075332;28;20028;-77
2022/12/15 07:04:58;;;;;;;24.80;10.27;;;;;;;1.78;54.84;100829.94;5070331;28;20523;-78
2022/12/15 07:07:24;;;;;;;23.97;10.93;;;;;;;1.85;54.89;100832.72;5075063;28;20090;-76
2022/12/15 07:09:50;;;;;;;19.03;10.10;;;;;;;1.73;55.13;100823.47;5075754;28;20033;-78
2022/12/15 07:12:16;;;;;;;20.33;10.63;;;;;;;1.77;55.82;100819.47;5070464;28;20198;-76
2022/12/15 07:14:42;;;;;;;15.33;8.53;;;;;;;2.19;56.29;100829.81;5062884;28;20067;-77
2022/12/15 07:17:09;;;;;;;15.13;9.20;;;;;;;2.45;58.26;100825.91;5072271;28;20079;-77
2022/12/15 07:19:35;;;;;;;19.80;8.97;;;;;;;2.61;58.16;100824.97;5073604;28;20043;-77
2022/12/15 07:22:00;;;;;;;20.13;9.60;;;;;;;2.68;55.90;100836.53;5052155;28;20135;-77
2022/12/15 07:24:26;;;;;;;16.47;9.93;;;;;;;2.58;55.10;100835.91;5067088;28;20089;-79
2022/12/15 07:26:51;;;;;;;16.90;9.83;;;;;;;2.51;55.37;100843.78;5072673;28;20439;-75
2022/12/15 07:29:17;;;;;;;19.67;10.53;;;;;;;2.37;55.20;100852.44;5074089;28;20060;-75
2022/12/15 07:31:42;;;;;;;19.40;9.13;;;;;;;2.38;55.71;100843.47;5074162;28;20072;-79
2022/12/15 07:34:07;;;;;;;19.77;8.67;;;;;;;2.31;55.65;100844.34;5071585;28;20441;-77
2022/12/15 07:36:33;;;;;;;15.50;9.43;;;;;;;2.31;55.97;100847.81;5069192;28;20409;-75
2022/12/15 07:39:03;;;;;;;13.53;8.10;;;;;;;2.38;56.87;100845.28;5074251;28;20040;-76
2022/12/15 07:41:28;;;;;;;13.87;8.03;;;;;;;2.54;56.15;100854.00;5066568;28;20119;-76
2022/12/15 07:43:54;;;;;;;19.17;7.50;;;;;;;2.72;55.86;100850.28;5074609;28;20508;-77
2022/12/15 07:46:20;;;;;;;14.40;8.00;;;;;;;2.57;56.53;100853.69;5074122;28;20491;-77
2022/12/15 07:48:46;;;;;;;9.67;7.03;;;;;;;2.77;56.13;100863.84;5072115;28;20031;-76
2022/12/15 07:51:11;;;;;;;14.37;7.37;;;;;;;2.68;57.39;100858.59;5074315;28;20044;-76
2022/12/15 07:53:37;;;;;;;17.87;7.90;;;;;;;2.81;56.28;100865.16;5074032;28;20097;-75
2022/12/15 07:56:04;;;;;;;18.63;7.37;;;;;;;2.96;56.00;100858.94;5073976;28;20063;-77
2022/12/15 07:58:30;;;;;;;13.87;7.60;;;;;;;3.11;56.61;100862.47;5073575;28;20028;-78
2022/12/15 08:01:00;;;;;;;13.17;8.57;;;;;;;3.15;56.44;100861.13;5074536;28;20036;-77
2022/12/15 08:03:27;;;;;;;18.48;9.40;;;;;;;3.24;57.00;100867.19;5071153;28;20496;-78
2022/12/15 08:05:53;;;;;;;23.37;8.77;;;;;;;3.36;56.28;100866.59;5072801;28;20488;-77
2022/12/15 08:08:19;;;;;;;16.40;9.70;;;;;;;3.41;56.18;100869.56;5072273;28;20094;-77
2022/12/15 08:10:45;;;;;;;17.33;10.33;;;;;;;3.32;56.75;100873.25;5074295;28;20028;-78
2022/12/15 08:13:12;;;;;;;22.90;10.70;;;;;;;3.34;56.95;100867.78;5074133;28;20392;-77
2022/12/15 08:15:38;;;;;;;18.97;10.37;;;;;;;3.29;57.48;100870.13;5072944;28;20052;-76
2022/12/15 08:18:04;;;;;;;16.40;9.73;;;;;;;3.31;56.36;100871.63;5070286;28;20508;-77
2022/12/15 08:20:30;;;;;;;16.73;10.03;;;;;;;3.34;56.15;100876.56;5073038;28;20093;-75
2022/12/15 08:22:55;;;;;;;18.93;10.57;;;;;;;3.18;57.01;100876.72;5061095;28;20052;-76
2022/12/15 08:25:21;;;;;;;17.70;9.50;;;;;;;3.28;56.20;100879.94;5071065;28;20495;-76
2022/12/15 08:27:49;;;;;;;18.57;10.23;;;;;;;3.26;56.00;100876.63;5068352;28;20040;-76
2022/12/15 08:30:14;;;;;;;21.87;10.70;;;;;;;3.25;56.52;100882.94;5073673;28;20044;-76
2022/12/15 08:32:40;;;;;;;19.90;11.30;;;;;;;3.24;57.13;100888.44;5073215;28;20040;-76
2022/12/15 08:35:06;;;;;;;31.80;9.57;;;;;;;3.54;56.05;100892.84;5073664;28;20039;-76
2022/12/15 08:37:33;;;;;;;23.30;11.53;;;;;;;3.54;56.60;100899.00;5073947;28;20064;-77
2022/12/15 08:39:58;;;;;;;24.10;11.07;;;;;;;3.68;57.12;100896.56;5074196;28;20023;-76
2022/12/15 08:42:23;;;;;;;22.43;11.80;;;;;;;3.67;57.11;100895.75;5072946;28;20041;-75
2022/12/15 08:44:49;;;;;;;16.77;9.93;;;;;;;3.29;59.85;100896.69;5072247;28;20044;-78
2022/12/15 08:47:14;;;;;;;26.77;13.80;;;;;;;3.96;58.31;100908.25;5072900;28;20051;-75
2022/12/15 08:49:40;;;;;;;23.77;12.60;;;;;;;3.96;58.37;100910.91;5071824;28;20036;-75
2022/12/15 08:52:05;;;;;;;25.07;13.20;;;;;;;4.08;58.38;100910.31;5073012;28;20118;-75
2022/12/15 08:54:31;;;;;;;24.23;13.00;;;;;;;4.18;57.49;100910.03;5072462;28;20134;-76
2022/12/15 08:56:56;;;;;;;30.10;14.13;;;;;;;4.21;57.60;100913.16;5072125;28;20115;-76
2022/12/15 08:59:22;;;;;;;20.03;12.40;;;;;;;4.19;57.67;100923.16;5072810;28;20044;-76
2022/12/15 09:01:47;;;;;;;21.10;13.13;;;;;;;4.26;57.49;100917.94;5072951;28;20495;-75
2022/12/15 09:04:14;;;;;;;29.20;14.33;;;;;;;4.38;57.26;100909.31;5073236;28;20392;-77
2022/12/15 09:06:39;;;;;;;23.10;13.67;;;;;;;4.47;58.08;100915.38;5066215;28;20150;-77
2022/12/15 09:09:07;;;;;;;25.70;14.97;;;;;;;4.53;58.27;100911.13;5072915;28;20151;-74
2022/12/15 09:11:33;;;;;;;26.80;14.77;;;;;;;4.66;57.61;100909.47;5073294;28;20416;-77
2022/12/15 09:13:59;;;;;;;25.77;15.17;;;;;;;4.62;57.75;100910.06;5072630;28;20048;-77
2022/12/15 09:16:25;;;;;;;32.03;15.20;;;;;;;4.88;57.55;100913.84;5060251;28;20040;-76
2022/12/15 09:18:52;;;;;;;25.50;14.60;;;;;;;4.79;58.19;100915.00;5071930;28;20051;-75
2022/12/15 09:21:21;;;;;;;32.43;14.60;;;;;;;4.84;57.89;100922.41;5062321;28;20131;-75
2022/12/15 09:23:50;;;;;;;21.87;14.70;;;;;;;5.13;57.28;100915.16;5052198;28;20331;-77
2022/12/15 09:26:17;;;;;;;27.83;16.03;;;;;;;5.10;57.98;100912.06;5051478;28;20037;-76
2022/12/15 09:28:42;;;;;;;38.27;15.87;;;;;;;5.58;57.46;100921.97;5047237;28;20029;-78
2022/12/15 09:31:19;;;;;;;30.13;16.37;;;;;;;5.75;57.24;100920.72;5056867;28;20496;-77
2022/12/15 09:33:45;;;;;;;25.87;16.60;;;;;;;5.69;57.90;100924.16;5040255;28;20049;-77
2022/12/15 09:36:12;;;;;;;31.13;17.60;;;;;;;5.96;57.68;100922.56;5036209;28;20046;-77
2022/12/15 09:38:38;;;;;;;36.80;18.47;;;;;;;6.12;57.33;100928.44;5036093;28;20045;-79
2022/12/15 09:41:28;;;;;;;30.13;16.67;;;;;;;6.04;57.07;100922.41;5035711;28;20124;-76
2022/12/15 09:43:58;;;;;;;26.50;16.13;;;;;;;6.00;57.08;100930.00;5035204;28;20037;-77
2022/12/15 09:46:27;;;;;;;28.87;16.90;;;;;;;5.65;58.21;100933.56;5018225;28;20041;-77
2022/12/15 09:48:57;;;;;;;32.80;16.63;;;;;;;6.00;57.69;100927.31;5036699;28;20021;-76
2022/12/15 09:51:32;;;;;;;30.30;16.90;;;;;;;6.10;57.09;100938.47;5035799;28;20137;-76
2022/12/15 09:53:57;;;;;;;31.90;16.63;;;;;;;5.99;57.85;100932.84;5036052;28;20069;-79
2022/12/15 09:56:48;;;;;;;28.40;16.50;;;;;;;6.05;57.83;100937.41;5035752;28;20599;-75
2022/12/15 09:59:22;;;;;;;32.20;15.68;;;;;;;6.10;57.35;100933.16;5035067;28;20528;-76
2022/12/15 10:02:15;;;;;;;31.90;18.27;;;;;;;6.34;57.34;100928.38;5035788;28;20037;-78
2022/12/15 10:04:54;;;;;;;36.93;17.87;;;;;;;6.25;58.09;100919.69;5035502;28;20052;-77
2022/12/15 10:07:30;;;;;;;27.23;17.23;;;;;;;6.59;57.98;100918.88;5047511;28;20033;-77
2022/12/15 10:09:55;;;;;;;30.30;18.17;;;;;;;6.76;57.01;100921.00;5055817;28;20518;-77
2022/12/15 10:12:36;;;;;;;34.30;17.77;;;;;;;6.62;58.17;100919.31;5055392;28;20100;-78
2022/12/15 10:15:04;;;;;;;28.50;17.15;;;;;;;6.61;57.62;100925.66;5055235;28;20029;-77
2022/12/15 10:17:48;;;;;;;31.43;17.47;;;;;;;6.76;57.29;100928.22;5055549;28;20037;-78
2022/12/15 10:20:13;;;;;;;33.73;18.13;;;;;;;6.86;57.48;100928.69;5055960;28;20052;-78
2022/12/15 10:22:39;;;;;;;28.83;17.90;;;;;;;6.98;57.30;100933.25;5055512;28;20037;-77
2022/12/15 10:25:31;;;;;;;30.90;18.03;;;;;;;7.09;57.68;100929.97;5056412;28;20040;-77
2022/12/15 10:28:31;;;;;;;26.70;15.90;;;;;;;7.20;57.44;100928.59;5056376;28;20033;-76
2022/12/15 10:31:17;;;;;;;25.95;15.82;;;;;;;7.47;57.06;100932.19;5012318;28;20107;-78
2022/12/15 10:33:44;;;;;;;30.33;16.07;;;;;;;7.69;57.11;100926.44;5012985;28;20065;-79
2022/12/15 10:36:12;;;;;;;27.50;16.20;;;;;;;7.69;57.42;100936.31;5012070;28;20198;-77
2022/12/15 10:38:41;;;;;;;28.08;16.63;;;;;;;7.99;56.30;100932.22;5011839;28;20042;-77
2022/12/15 10:41:13;;;;;;;24.67;17.27;;;;;;;8.02;56.16;100941.69;5011404;28;20731;-78
2022/12/15 10:43:41;;;;;;;32.15;16.45;;;;;;;7.90;56.83;100942.28;5024115;28;20434;-79
2022/12/15 10:46:17;;;;;;;27.17;16.00;;;;;;;8.15;55.86;100941.69;5032827;28;20068;-78
2022/12/15 10:48:45;;;;;;;28.50;17.08;;;;;;;8.18;56.29;100943.91;5015765;28;20121;-78
2022/12/15 10:51:16;;;;;;;33.35;17.73;;;;;;;8.21;55.77;100939.00;5012362;28;20050;-76
2022/12/15 10:53:49;;;;;;;31.38;16.40;;;;;;;8.16;56.78;100935.28;5012821;28;20189;-77
2022/12/15 10:56:25;;;;;;;28.70;17.33;;;;;;;8.36;55.99;100933.44;5012519;28;20122;-78
2022/12/15 10:58:53;;;;;;;22.45;16.25;;;;;;;8.43;56.25;100920.88;5012484;28;20033;-77
2022/12/15 11:01:28;;;;;;;26.08;16.38;;;;;;;7.78;57.20;100933.22;5013021;28;20156;-75
2022/12/15 11:03:54;;;;;;;23.58;16.05;;;;;;;8.39;56.38;100927.69;5011970;28;20565;-76
2022/12/15 11:06:26;;;;;;;26.98;16.05;;;;;;;8.43;55.78;100918.22;5012630;28;20510;-76
2022/12/15 11:08:55;;;;;;;31.13;15.85;;;;;;;8.21;55.95;100932.81;5052441;28;20033;-75
2022/12/15 11:14:28;;;;;;;26.75;15.95;;;;;;;8.27;56.24;100932.84;5071829;28;20043;-77
2022/12/15 11:16:57;;;;;;;23.88;16.40;;;;;;;8.23;56.16;100923.56;5073920;28;20037;-77
2022/12/15 11:19:32;;;;;;;27.30;16.33;;;;;;;8.02;57.16;100915.72;5055804;28;20020;-76
2022/12/15 11:22:09;;;;;;;27.85;16.48;;;;;;;8.35;56.34;100915.75;5074752;28;20033;-79
2022/12/15 11:24:42;;;;;;;31.20;16.40;;;;;;;8.22;56.35;100913.88;5073850;28;20033;-77
2022/12/15 11:27:17;;;;;;;27.33;16.52;;;;;;;8.14;56.60;100918.63;5074274;28;20028;-76
2022/12/15 11:30:08;;;;;;;31.60;15.25;;;;;;;8.23;56.70;100914.69;5073640;28;20044;-76
2022/12/15 11:32:36;;;;;;;36.50;17.30;;;;;;;8.31;56.07;100914.53;5068080;28;20401;-76
2022/12/15 11:35:01;;;;;;;25.00;16.38;;;;;;;8.41;56.09;100912.22;5054076;28;20033;-77
2022/12/15 11:37:43;;;;;;;26.95;17.40;;;;;;;8.49;56.24;100914.69;5053600;28;20064;-75
2022/12/15 11:40:27;;;;;;;33.83;17.52;;;;;;;8.50;55.91;100919.00;5035924;28;20083;-76
2022/12/15 11:43:14;;;;;;;26.08;15.90;;;;;;;8.44;56.09;100927.88;5053640;28;20500;-76
2022/12/15 11:45:53;;;;;;;27.00;16.10;;;;;;;8.58;56.24;100913.41;5035053;28;20037;-76
2022/12/15 11:48:21;;;;;;;26.13;15.15;;;;;;;8.58;55.94;100918.78;5052439;28;20045;-76
2022/12/15 11:51:01;;;;;;;31.60;16.65;;;;;;;8.45;56.38;100921.50;5052262;28;20137;-75
2022/12/15 11:53:36;;;;;;;24.52;15.90;;;;;;;8.55;56.18;100924.56;5052406;28;20612;-76
2022/12/15 11:56:23;;;;;;;28.85;16.42;;;;;;;8.59;56.60;100933.81;5052665;28;20040;-77
2022/12/15 11:58:51;;;;;;;26.85;15.68;;;;;;;8.53;57.21;100934.66;5052147;28;20036;-76
2022/12/15 12:01:38;;;;;;;35.78;17.83;;;;;;;8.51;57.62;100934.84;5053172;28;20125;-76
2022/12/15 12:04:23;;;;;;;33.33;19.20;;;;;;;8.91;56.24;100932.06;5033989;28;20119;-76
2022/12/15 12:07:18;;;;;;;31.98;19.25;;;;;;;9.12;55.35;100932.59;5034659;28;20037;-75
2022/12/15 12:10:12;;;;;;;33.63;18.98;;;;;;;9.17;55.67;100937.31;5050452;28;20039;-75
2022/12/15 12:13:03;;;;;;;30.35;18.83;;;;;;;9.17;55.61;100932.78;5036678;28;20091;-75
2022/12/15 12:15:40;;;;;;;27.52;18.55;;;;;;;9.43;55.86;100927.28;5052489;28;20045;-76
2022/12/15 12:18:21;;;;;;;30.48;18.42;;;;;;;9.62;54.94;100922.81;5052371;28;20048;-74
2022/12/15 12:21:21;;;;;;;31.13;17.67;;;;;;;9.99;53.76;100915.72;5052682;28;20037;-76
2022/12/15 12:23:59;;;;;;;31.83;17.65;;;;;;;9.61;54.26;100913.94;4951775;28;20063;-76
2022/12/15 12:26:39;;;;;;;32.20;17.15;;;;;;;9.94;53.91;100907.50;4952013;28;20043;-75
2022/12/15 12:29:49;;;;;;;26.13;16.53;;;;;;;10.21;53.11;100914.31;4952053;28;20046;-75
2022/12/15 12:32:23;;;;;;;25.35;17.08;;;;;;;10.12;53.60;100913.78;4935705;28;20442;-77
2022/12/15 12:35:04;;;;;;;26.17;15.43;;;;;;;10.33;52.53;100905.31;4971492;28;20110;-76
2022/12/15 12:37:41;;;;;;;28.92;15.57;;;;;;;10.59;52.53;100893.47;4970906;28;20053;-75
2022/12/15 12:40:35;;;;;;;32.10;17.38;;;;;;;10.30;53.30;100897.69;4971236;28;20518;-75
2022/12/15 12:43:02;;;;;;;30.52;16.15;;;;;;;10.81;51.79;100894.66;4970583;28;20046;-75
2022/12/15 12:45:40;;;;;;;27.30;15.00;;;;;;;10.67;52.03;100886.97;4970943;28;20070;-76
2022/12/15 12:48:14;;;;;;;27.40;14.90;;;;;;;10.54;52.97;100890.63;4986019;28;20454;-76
2022/12/15 12:50:39;;;;;;;24.02;13.65;;;;;;;10.56;52.47;100894.75;4990321;28;20054;-76
2022/12/15 12:53:05;;;;;;;24.55;14.00;;;;;;;10.90;51.89;100887.09;4989792;28;20113;-76
2022/12/15 12:55:41;;;;;;;22.50;13.40;;;;;;;10.84;52.63;100893.38;4989931;28;20241;-76
2022/12/15 12:58:41;;;;;;;22.50;12.77;;;;;;;10.84;52.05;100885.31;4990448;28;20098;-76
2022/12/15 13:01:18;;;;;;;19.67;12.13;;;;;;;10.91;51.54;100880.69;5001354;28;20555;-74
2022/12/15 13:03:45;;;;;;;18.40;11.40;;;;;;;11.13;51.03;100881.84;4992620;28;20038;-76
2022/12/15 13:06:35;;;;;;;19.95;10.02;;;;;;;9.43;54.07;100887.06;5000603;28;20096;-75
2022/12/15 13:09:15;;;;;;;22.13;10.38;;;;;;;9.94;53.47;100891.41;5009505;28;20099;-75
2022/12/15 13:11:56;;;;;;;21.90;11.95;;;;;;;9.38;55.16;100881.50;5009711;28;20045;-76
2022/12/15 13:14:30;;;;;;;18.52;9.85;;;;;;;9.13;54.32;100882.47;5009691;28;20296;-73
2022/12/15 13:17:22;;;;;;;15.10;9.38;;;;;;;9.10;54.70;100875.69;4993555;28;20422;-75
2022/12/15 13:19:59;;;;;;;18.42;9.02;;;;;;;9.45;53.83;100868.84;4990132;28;20041;-79
2022/12/15 13:22:32;;;;;;;22.20;9.77;;;;;;;9.44;53.26;100875.28;4990012;28;20051;-74
2022/12/15 13:24:58;;;;;;;25.70;9.23;;;;;;;8.69;55.32;100870.72;4990644;28;20022;-73
2022/12/15 13:27:25;;;;;;;15.90;9.32;;;;;;;9.10;55.02;100870.31;4974040;28;20070;-74
2022/12/15 13:29:59;;;;;;;15.88;8.88;;;;;;;8.73;55.73;100863.91;4990142;28;20046;-73
2022/12/15 13:32:42;;;;;;;17.73;8.65;;;;;;;8.39;56.49;100866.91;4989660;28;20145;-73
2022/12/15 13:35:10;;;;;;;18.08;8.73;;;;;;;8.40;57.06;100862.38;5010469;28;20033;-73
2022/12/15 13:37:47;;;;;;;15.80;8.95;;;;;;;8.80;54.89;100867.38;5051388;28;20044;-73
2022/12/15 13:40:36;;;;;;;19.75;9.55;;;;;;;9.22;54.40;100859.75;5052357;28;20029;-75
2022/12/15 13:43:04;;;;;;;17.60;8.43;;;;;;;9.04;54.08;100862.34;5051027;28;20129;-75
2022/12/15 13:45:35;;;;;;;17.70;9.18;;;;;;;8.79;54.96;100862.22;5071810;28;20059;-74
2022/12/15 13:48:13;;;;;;;16.02;9.25;;;;;;;8.81;55.46;100852.97;5071357;28;20067;-75
2022/12/15 13:51:17;;;;;;;17.90;9.50;;;;;;;9.82;52.61;100858.25;5068313;28;20083;-75
2022/12/15 13:53:46;;;;;;;15.60;10.23;;;;;;;9.46;53.96;100862.47;4985898;28;20043;-74
2022/12/15 13:56:33;;;;;;;19.52;10.75;;;;;;;9.63;53.20;100865.44;4985804;28;20137;-74
2022/12/15 13:59:11;;;;;;;17.77;12.57;;;;;;;9.23;54.60;100862.22;4985266;28;20049;-75